createdAt,value
2018-06-05T00:01:06.260Z,14.37
2018-06-05T00:03:34.780Z,15.27
2018-06-05T00:06:03.198Z,14.27
2018-06-05T00:08:31.667Z,15.00
2018-06-05T00:11:00.729Z,17.67
2018-06-05T00:13:29.105Z,16.00
2018-06-05T00:15:57.450Z,19.60
2018-06-05T00:18:25.843Z,16.63
2018-06-05T00:20:54.269Z,21.03
2018-06-05T00:23:22.624Z,16.30
2018-06-05T00:25:50.998Z,14.83
2018-06-05T00:28:19.352Z,18.83
2018-06-05T00:30:47.741Z,16.57
2018-06-05T00:33:16.159Z,16.23
2018-06-05T00:35:44.555Z,19.13
2018-06-05T00:38:15.530Z,17.40
2018-06-05T00:40:43.916Z,20.20
2018-06-05T00:43:12.338Z,16.53
2018-06-05T00:45:49.393Z,23.30
2018-06-05T00:48:18.029Z,20.50
2018-06-05T00:50:46.395Z,19.67
2018-06-05T00:53:14.788Z,21.87
2018-06-05T00:55:43.143Z,19.80
2018-06-05T00:58:12.179Z,22.43
2018-06-05T01:00:40.539Z,22.20
2018-06-05T01:03:08.884Z,23.83
2018-06-05T01:05:37.266Z,24.83
2018-06-05T01:08:05.688Z,30.07
2018-06-05T01:10:34.141Z,24.77
2018-06-05T01:13:02.623Z,26.37
2018-06-05T01:15:31.023Z,21.73
2018-06-05T01:17:59.540Z,22.93
2018-06-05T01:20:27.917Z,23.10
2018-06-05T01:22:56.316Z,21.63
2018-06-05T01:25:24.679Z,24.50
2018-06-05T01:27:53.014Z,23.27
2018-06-05T01:30:21.426Z,22.40
2018-06-05T01:32:49.765Z,21.50
2018-06-05T01:35:18.128Z,23.40
2018-06-05T01:37:46.534Z,21.97
2018-06-05T01:40:14.905Z,24.60
2018-06-05T01:42:44.071Z,21.53
2018-06-05T01:45:12.453Z,21.57
2018-06-05T01:47:40.841Z,19.87
2018-06-05T01:50:09.172Z,21.63
2018-06-05T01:52:37.586Z,24.13
2018-06-05T01:55:05.965Z,23.03
2018-06-05T01:57:34.338Z,25.43
2018-06-05T02:00:02.763Z,25.40
2018-06-05T02:02:31.140Z,25.90
2018-06-05T02:04:59.550Z,26.43
2018-06-05T02:07:27.896Z,32.23
2018-06-05T02:09:56.311Z,26.70
2018-06-05T02:12:24.669Z,31.13
2018-06-05T02:14:53.045Z,28.93
2018-06-05T02:17:21.426Z,26.40
2018-06-05T02:19:49.809Z,26.30
2018-06-05T02:22:18.207Z,29.47
2018-06-05T02:24:46.545Z,29.80
2018-06-05T02:27:14.944Z,30.03
2018-06-05T02:29:43.910Z,32.57
2018-06-05T02:32:12.306Z,31.57
2018-06-05T02:34:40.643Z,38.00
2018-06-05T02:37:09.024Z,35.50
2018-06-05T02:39:37.372Z,28.97
2018-06-05T02:42:05.706Z,32.00
2018-06-05T02:44:34.125Z,35.90
2018-06-05T02:47:02.469Z,34.17
2018-06-05T02:49:30.830Z,32.97
2018-06-05T02:51:59.219Z,38.50
2018-06-05T02:54:27.612Z,33.43
2018-06-05T02:56:56.011Z,34.60
2018-06-05T02:59:24.358Z,30.80
2018-06-05T03:01:53.148Z,35.57
2018-06-05T03:04:21.535Z,36.30
2018-06-05T03:06:49.940Z,36.07
2018-06-05T03:09:18.300Z,32.07
2018-06-05T03:11:46.607Z,35.40
2018-06-05T03:14:14.977Z,38.47
2018-06-05T03:16:43.482Z,37.10
2018-06-05T03:19:11.861Z,35.03
2018-06-05T03:21:40.286Z,35.87
2018-06-05T03:24:08.653Z,37.23
2018-06-05T03:26:37.046Z,36.27
2018-06-05T03:29:05.377Z,39.80
2018-06-05T03:31:33.802Z,34.80
2018-06-05T03:34:02.186Z,39.33
2018-06-05T03:36:30.626Z,35.70
2018-06-05T03:38:59.064Z,42.10
2018-06-05T03:41:27.405Z,39.60
2018-06-05T03:43:55.737Z,37.77
2018-06-05T03:46:24.065Z,38.37
2018-06-05T03:48:52.400Z,42.73
2018-06-05T03:51:20.828Z,45.67
2018-06-05T03:53:49.234Z,40.07
2018-06-05T03:56:17.981Z,46.53
2018-06-05T03:58:46.361Z,45.10
2018-06-05T04:01:14.741Z,42.00
2018-06-05T04:03:43.879Z,47.20
2018-06-05T04:06:12.237Z,42.90
2018-06-05T04:08:40.584Z,43.10
2018-06-05T04:11:08.974Z,47.83
2018-06-05T04:13:37.315Z,40.10
2018-06-05T04:16:06.437Z,40.50
2018-06-05T04:18:34.821Z,39.20
2018-06-05T04:21:03.134Z,34.53
2018-06-05T04:23:32.166Z,34.43
2018-06-05T04:26:00.544Z,33.93
2018-06-05T04:28:28.945Z,36.70
2018-06-05T04:30:57.297Z,34.57
2018-06-05T04:33:26.116Z,34.13
2018-06-05T04:35:54.517Z,33.80
2018-06-05T04:38:22.842Z,42.83
2018-06-05T04:40:51.229Z,41.77
2018-06-05T04:43:19.573Z,36.63
2018-06-05T04:45:47.895Z,36.00
2018-06-05T04:48:16.285Z,42.40
2018-06-05T04:50:44.611Z,37.73
2018-06-05T04:53:13.163Z,36.20
2018-06-05T04:55:41.469Z,41.90
2018-06-05T04:58:09.810Z,39.30
2018-06-05T05:00:38.221Z,37.63
2018-06-05T05:03:06.634Z,38.70
2018-06-05T05:05:35.791Z,40.43
2018-06-05T05:08:04.184Z,39.70
2018-06-05T05:10:32.560Z,36.33
2018-06-05T05:13:00.937Z,39.80
2018-06-05T05:15:29.324Z,41.40
2018-06-05T05:17:57.726Z,40.60
2018-06-05T05:20:26.297Z,38.47
2018-06-05T05:22:54.684Z,40.70
2018-06-05T05:25:23.079Z,38.13
2018-06-05T05:27:51.455Z,39.47
2018-06-05T05:30:19.850Z,36.43
2018-06-05T05:32:48.235Z,37.60
2018-06-05T05:35:16.599Z,33.40
2018-06-05T05:37:45.053Z,35.07
2018-06-05T05:40:13.384Z,36.03
2018-06-05T05:42:41.745Z,35.23
2018-06-05T05:45:10.102Z,34.83
2018-06-05T05:47:38.428Z,35.33
2018-06-05T05:50:06.887Z,31.07
2018-06-05T05:52:35.261Z,33.40
2018-06-05T05:55:03.753Z,33.30
2018-06-05T05:57:32.203Z,29.23
2018-06-05T06:00:00.263Z,33.77
2018-06-05T06:02:28.636Z,33.57
2018-06-05T06:04:56.987Z,34.13
2018-06-05T06:07:25.492Z,31.50
2018-06-05T06:09:53.923Z,34.13
2018-06-05T06:12:22.316Z,34.00
2018-06-05T06:14:50.741Z,31.40
2018-06-05T06:17:19.546Z,25.23
2018-06-05T06:19:47.980Z,31.60
2018-06-05T06:22:16.321Z,30.97
2018-06-05T06:24:44.852Z,31.50
2018-06-05T06:27:13.299Z,29.50
2018-06-05T06:29:41.659Z,28.83
2018-06-05T06:32:10.174Z,29.03
2018-06-05T06:34:38.576Z,34.07
2018-06-05T06:37:06.966Z,36.60
2018-06-05T06:39:35.414Z,33.20
2018-06-05T06:42:03.825Z,32.00
2018-06-05T06:44:32.258Z,33.77
2018-06-05T06:47:01.298Z,35.40
2018-06-05T06:49:29.662Z,36.43
2018-06-05T06:51:58.665Z,34.10
2018-06-05T06:54:27.064Z,34.63
2018-06-05T06:56:55.460Z,34.87
2018-06-05T06:59:23.895Z,29.27
2018-06-05T07:01:52.223Z,27.00
2018-06-05T07:04:20.735Z,27.10
2018-06-05T07:06:49.108Z,27.00
2018-06-05T07:09:17.512Z,29.27
2018-06-05T07:11:46.556Z,30.03
2018-06-05T07:14:14.961Z,31.13
2018-06-05T07:16:43.395Z,29.00
2018-06-05T07:19:11.852Z,30.10
2018-06-05T07:21:40.936Z,30.10
2018-06-05T07:24:09.354Z,28.83
2018-06-05T07:26:37.727Z,24.70
2018-06-05T07:29:05.818Z,26.80
2018-06-05T07:31:34.508Z,29.00
2018-06-05T07:34:02.985Z,24.63
2018-06-05T07:36:31.701Z,33.10
2018-06-05T07:39:00.037Z,29.73
2018-06-05T07:41:28.394Z,30.40
2018-06-05T07:43:56.738Z,27.50
2018-06-05T07:46:25.169Z,24.97
2018-06-05T07:48:53.603Z,26.80
2018-06-05T07:51:22.006Z,30.83
2018-06-05T07:53:50.526Z,28.10
2018-06-05T07:56:19.681Z,31.20
2018-06-05T07:58:48.083Z,30.33
2018-06-05T08:01:16.533Z,26.60
2018-06-05T08:03:44.951Z,27.17
2018-06-05T08:06:13.565Z,31.57
2018-06-05T08:08:41.973Z,30.63
2018-06-05T08:11:11.077Z,26.10
2018-06-05T08:13:39.431Z,26.07
2018-06-05T08:16:07.858Z,29.50
2018-06-05T08:18:36.270Z,25.73
2018-06-05T08:21:04.647Z,28.57
2018-06-05T08:23:33.040Z,30.53
2018-06-05T08:26:01.397Z,29.60
2018-06-05T08:28:29.754Z,31.47
2018-06-05T08:30:58.176Z,29.80
2018-06-05T08:33:26.597Z,27.77
2018-06-05T08:35:55.051Z,26.40
2018-06-05T08:38:23.481Z,24.93
2018-06-05T08:40:51.817Z,28.50
2018-06-05T08:43:20.228Z,23.80
2018-06-05T08:45:48.618Z,24.60
2018-06-05T08:48:17.027Z,28.83
2018-06-05T08:50:45.544Z,25.70
2018-06-05T08:53:13.895Z,24.80
2018-06-05T08:55:42.297Z,30.50
2018-06-05T08:58:10.626Z,27.43
2018-06-05T09:00:39.089Z,26.53
2018-06-05T09:03:07.461Z,27.43
2018-06-05T09:05:35.845Z,28.40
2018-06-05T09:08:04.219Z,24.97
2018-06-05T09:10:32.605Z,26.57
2018-06-05T09:13:01.001Z,27.20
2018-06-05T09:15:30.315Z,24.07
2018-06-05T09:17:58.695Z,26.73
2018-06-05T09:20:27.090Z,22.90
2018-06-05T09:22:55.432Z,26.17
2018-06-05T09:25:23.863Z,23.27
2018-06-05T09:27:52.285Z,26.23
2018-06-05T09:30:20.971Z,23.00
2018-06-05T09:32:49.326Z,27.90
2018-06-05T09:35:17.670Z,25.63
2018-06-05T09:37:46.056Z,24.13
2018-06-05T09:40:15.400Z,24.60
2018-06-05T09:42:43.760Z,24.53
2018-06-05T09:45:12.131Z,22.00
2018-06-05T09:47:40.533Z,22.07
2018-06-05T09:50:08.964Z,23.27
2018-06-05T09:52:37.337Z,25.90
2018-06-05T09:55:05.778Z,43.17
2018-06-05T09:57:34.199Z,23.27
2018-06-05T10:00:03.462Z,21.20
2018-06-05T10:02:31.887Z,21.47
2018-06-05T10:05:03.947Z,24.50
2018-06-05T10:07:33.357Z,24.23
2018-06-05T10:10:01.723Z,22.73
2018-06-05T10:12:30.389Z,26.67
2018-06-05T10:14:58.983Z,22.07
2018-06-05T10:17:27.388Z,25.23
2018-06-05T10:19:55.768Z,25.60
2018-06-05T10:22:24.148Z,24.23
2018-06-05T10:24:52.489Z,21.30
2018-06-05T10:27:20.844Z,22.80
2018-06-05T10:29:49.256Z,20.07
2018-06-05T10:32:17.756Z,22.50
2018-06-05T10:34:46.211Z,21.77
2018-06-05T10:37:14.594Z,22.97
2018-06-05T10:39:43.028Z,20.93
2018-06-05T10:42:11.446Z,21.10
2018-06-05T10:44:42.015Z,19.97
2018-06-05T10:47:10.379Z,19.20
2018-06-05T10:49:38.691Z,20.77
2018-06-05T10:52:07.142Z,18.90
2018-06-05T10:54:35.571Z,21.90
2018-06-05T10:57:03.929Z,20.50
2018-06-05T10:59:32.389Z,24.00
2018-06-05T11:02:00.770Z,20.63
2018-06-05T11:04:29.745Z,18.60
2018-06-05T11:06:58.124Z,20.33
2018-06-05T11:09:26.616Z,21.77
2018-06-05T11:11:55.006Z,21.40
2018-06-05T11:14:23.360Z,18.63
2018-06-05T11:16:51.735Z,18.53
2018-06-05T11:19:20.122Z,21.00
2018-06-05T11:21:48.546Z,19.60
2018-06-05T11:24:16.876Z,19.07
2018-06-05T11:26:45.257Z,20.37
2018-06-05T11:29:13.648Z,16.83
2018-06-05T11:31:42.012Z,18.80
2018-06-05T11:34:10.395Z,18.17
2018-06-05T11:36:38.766Z,18.90
2018-06-05T11:39:08.409Z,18.60
2018-06-05T11:41:38.793Z,18.13
2018-06-05T11:44:07.137Z,15.33
2018-06-05T11:46:36.110Z,17.83
2018-06-05T11:49:04.489Z,18.27
2018-06-05T11:51:33.780Z,17.37
2018-06-05T11:54:03.053Z,17.30
2018-06-05T11:56:31.430Z,17.40
2018-06-05T11:59:00.098Z,17.63
2018-06-05T12:01:28.561Z,15.30
2018-06-05T12:03:57.573Z,20.70
2018-06-05T12:06:26.837Z,18.57
2018-06-05T12:08:57.562Z,17.67
2018-06-05T12:11:26.058Z,16.77
2018-06-05T12:13:54.492Z,16.23
2018-06-05T12:16:22.907Z,18.83
2018-06-05T12:18:52.049Z,16.57
2018-06-05T12:21:20.470Z,15.93
2018-06-05T12:23:48.962Z,15.70
2018-06-05T12:26:17.355Z,15.50
2018-06-05T12:28:46.045Z,14.03
2018-06-05T12:31:15.701Z,14.80
2018-06-05T12:33:44.042Z,14.67
2018-06-05T12:36:12.551Z,14.90
2018-06-05T12:38:40.908Z,15.67
2018-06-05T12:41:09.608Z,14.93
2018-06-05T12:43:37.987Z,14.37
2018-06-05T12:46:06.384Z,12.60
2018-06-05T12:48:34.786Z,14.30
2018-06-05T12:51:04.023Z,13.57
2018-06-05T12:53:32.541Z,13.63
2018-06-05T12:56:00.965Z,14.23
2018-06-05T12:58:29.370Z,13.00
2018-06-05T13:00:57.757Z,13.43
2018-06-05T13:03:26.553Z,13.07
2018-06-05T13:05:54.692Z,13.43
2018-06-05T13:08:23.184Z,13.57
2018-06-05T13:10:52.700Z,12.80
2018-06-05T13:13:21.173Z,13.70
2018-06-05T13:15:49.550Z,13.27
2018-06-05T13:18:17.970Z,12.50
2018-06-05T13:20:46.373Z,13.13
2018-06-05T13:23:14.762Z,10.53
2018-06-05T13:25:43.177Z,12.07
2018-06-05T13:28:12.267Z,12.77
2018-06-05T13:30:40.679Z,11.97
2018-06-05T13:33:09.792Z,12.60
2018-06-05T13:35:38.240Z,11.70
2018-06-05T13:38:06.771Z,12.17
2018-06-05T13:40:35.239Z,11.73
2018-06-05T13:43:04.668Z,12.07
2018-06-05T13:45:33.250Z,11.20
2018-06-05T13:48:01.614Z,10.87
2018-06-05T13:50:30.127Z,11.90
2018-06-05T13:52:58.632Z,14.07
2018-06-05T13:55:27.165Z,10.93
2018-06-05T13:57:55.674Z,10.93
2018-06-05T14:00:24.134Z,10.30
2018-06-05T14:02:52.593Z,10.23
2018-06-05T14:05:21.686Z,9.57
2018-06-05T14:07:50.905Z,10.60
2018-06-05T14:10:19.457Z,9.60
2018-06-05T14:12:47.943Z,9.10
2018-06-05T14:15:16.483Z,11.10
2018-06-05T14:17:44.990Z,12.00
2018-06-05T14:20:13.713Z,12.23
2018-06-05T14:22:42.208Z,9.97
2018-06-05T14:25:11.471Z,10.93
2018-06-05T14:27:40.449Z,9.40
2018-06-05T14:30:08.868Z,10.20
2018-06-05T14:32:37.267Z,9.43
2018-06-05T14:35:06.031Z,8.70
2018-06-05T14:37:34.487Z,9.20
2018-06-05T14:40:04.486Z,9.37
2018-06-05T14:42:32.978Z,8.27
2018-06-05T14:45:01.745Z,9.40
2018-06-05T14:47:30.893Z,9.43
2018-06-05T14:49:59.836Z,7.90
2018-06-05T14:52:33.064Z,10.23
2018-06-05T14:55:01.521Z,9.17
2018-06-05T14:57:30.023Z,8.43
2018-06-05T14:59:58.498Z,8.33
2018-06-05T15:02:26.993Z,10.20
2018-06-05T15:04:56.285Z,8.93
2018-06-05T15:07:25.260Z,10.40
2018-06-05T15:09:53.679Z,8.67
2018-06-05T15:12:23.848Z,8.60
2018-06-05T15:14:52.304Z,9.83
2018-06-05T15:17:20.994Z,8.80
2018-06-05T15:19:49.787Z,9.37
2018-06-05T15:22:18.307Z,9.27
2018-06-05T15:24:46.921Z,9.10
2018-06-05T15:27:15.331Z,11.07
2018-06-05T15:29:43.757Z,8.30
2018-06-05T15:32:12.457Z,7.90
2018-06-05T15:34:41.147Z,7.63
2018-06-05T15:37:09.589Z,8.67
2018-06-05T15:39:38.130Z,8.73
2018-06-05T15:42:06.547Z,8.90
2018-06-05T15:44:34.932Z,8.80
2018-06-05T15:47:03.348Z,8.40
2018-06-05T15:49:31.788Z,8.47
2018-06-05T15:52:01.618Z,9.80
2018-06-05T15:54:30.128Z,8.50
2018-06-05T15:56:58.591Z,8.50
2018-06-05T15:59:29.536Z,8.53
2018-06-05T16:01:58.768Z,6.90
2018-06-05T16:04:29.103Z,8.20
2018-06-05T16:06:58.219Z,7.60
2018-06-05T16:09:26.639Z,9.43
2018-06-05T16:11:55.164Z,8.33
2018-06-05T16:14:24.137Z,7.10
2018-06-05T16:16:52.548Z,7.30
2018-06-05T16:19:20.998Z,7.80
2018-06-05T16:21:49.631Z,7.77
2018-06-05T16:24:18.142Z,7.40
2018-06-05T16:26:46.647Z,7.73
2018-06-05T16:29:15.028Z,10.00
2018-06-05T16:31:43.406Z,7.90
2018-06-05T16:34:11.847Z,10.00
2018-06-05T16:36:40.288Z,7.77
2018-06-05T16:39:08.908Z,8.00
2018-06-05T16:41:37.278Z,7.00
2018-06-05T16:44:05.787Z,7.37
2018-06-05T16:46:34.207Z,7.80
2018-06-05T16:49:02.603Z,7.90
2018-06-05T16:51:31.024Z,7.60
2018-06-05T16:53:59.458Z,7.23
2018-06-05T16:56:27.838Z,8.40
2018-06-05T16:58:56.355Z,8.17
2018-06-05T17:01:24.886Z,9.13
2018-06-05T17:03:53.035Z,7.57
2018-06-05T17:06:21.451Z,7.83
2018-06-05T17:08:49.805Z,6.90
2018-06-05T17:11:18.245Z,8.47
2018-06-05T17:13:46.670Z,7.00
2018-06-05T17:16:15.053Z,7.30
2018-06-05T17:18:44.265Z,6.97
2018-06-05T17:21:12.631Z,7.43
2018-06-05T17:23:41.027Z,7.50
2018-06-05T17:26:09.474Z,7.87
2018-06-05T17:28:37.841Z,9.00
2018-06-05T17:31:06.225Z,7.50
2018-06-05T17:33:34.640Z,7.20
2018-06-05T17:36:04.040Z,7.27
2018-06-05T17:38:32.494Z,7.90
2018-06-05T17:41:01.894Z,8.13
2018-06-05T17:43:30.293Z,8.47
2018-06-05T17:45:58.731Z,9.10
2018-06-05T17:48:27.152Z,7.53
2018-06-05T17:50:55.577Z,8.27
2018-06-05T17:53:24.601Z,7.90
2018-06-05T17:55:53.021Z,7.90
2018-06-05T17:58:21.519Z,10.80
2018-06-05T18:00:50.003Z,10.10
2018-06-05T18:03:18.442Z,9.47
2018-06-05T18:05:46.979Z,9.27
2018-06-05T18:08:15.352Z,9.63
2018-06-05T18:10:44.510Z,11.60
2018-06-05T18:13:12.935Z,9.63
2018-06-05T18:15:41.350Z,10.70
2018-06-05T18:18:09.924Z,13.40
2018-06-05T18:20:39.280Z,13.40
2018-06-05T18:23:07.747Z,11.90
2018-06-05T18:25:36.289Z,10.60
2018-06-05T18:28:04.676Z,13.63
2018-06-05T18:30:33.081Z,13.10
2018-06-05T18:33:01.461Z,13.43
2018-06-05T18:35:29.809Z,17.43
2018-06-05T18:37:58.237Z,16.90
2018-06-05T18:40:26.706Z,19.83
2018-06-05T18:42:55.179Z,18.90
2018-06-05T18:45:23.590Z,15.13
2018-06-05T18:47:51.977Z,19.33
2018-06-05T18:50:20.373Z,19.03
2018-06-05T18:52:48.518Z,20.93
2018-06-05T18:55:16.902Z,22.60
2018-06-05T18:57:47.331Z,17.40
2018-06-05T19:00:16.126Z,18.60
2018-06-05T19:02:44.555Z,23.67
2018-06-05T19:05:12.968Z,20.20
2018-06-05T19:07:41.381Z,22.50
2018-06-05T19:10:09.770Z,26.90
2018-06-05T19:12:38.181Z,22.23
2018-06-05T19:15:06.601Z,24.00
2018-06-05T19:17:35.001Z,24.93
2018-06-05T19:20:03.436Z,25.97
2018-06-05T19:22:31.877Z,22.67
2018-06-05T19:25:00.292Z,26.53
2018-06-05T19:27:28.684Z,25.60
2018-06-05T19:29:57.261Z,24.57
2018-06-05T19:32:25.652Z,22.27
2018-06-05T19:34:54.080Z,24.70
2018-06-05T19:37:22.456Z,23.67
2018-06-05T19:39:51.150Z,26.17
2018-06-05T19:42:19.559Z,31.40
2018-06-05T19:44:47.950Z,23.97
2018-06-05T19:47:16.395Z,22.77
2018-06-05T19:49:44.814Z,25.37
2018-06-05T19:52:13.590Z,22.87
2018-06-05T19:54:42.018Z,26.83
2018-06-05T19:57:10.394Z,28.07
2018-06-05T19:59:38.809Z,25.37
2018-06-05T20:02:07.343Z,28.10
2018-06-05T20:04:35.514Z,24.83
2018-06-05T20:07:03.962Z,29.57
2018-06-05T20:09:32.361Z,25.77
2018-06-05T20:12:00.718Z,29.57
2018-06-05T20:14:29.191Z,24.50
2018-06-05T20:16:57.680Z,25.83
2018-06-05T20:19:26.117Z,28.00
2018-06-05T20:21:54.484Z,26.63
2018-06-05T20:24:23.167Z,27.37
2018-06-05T20:26:51.580Z,30.23
2018-06-05T20:29:20.004Z,28.43
2018-06-05T20:31:48.357Z,33.93
2018-06-05T20:34:16.742Z,26.77
2018-06-05T20:36:45.118Z,25.43
2018-06-05T20:39:13.475Z,29.30
2018-06-05T20:41:41.896Z,32.37
2018-06-05T20:44:10.268Z,29.57
2018-06-05T20:46:39.501Z,34.67
2018-06-05T20:49:07.910Z,35.13
2018-06-05T20:51:36.306Z,30.00
2018-06-05T20:54:04.692Z,41.10
2018-06-05T20:56:33.425Z,34.27
2018-06-05T20:59:01.817Z,40.67
2018-06-05T21:01:30.190Z,32.23
2018-06-05T21:03:59.984Z,38.60
2018-06-05T21:06:28.345Z,36.33
2018-06-05T21:08:56.683Z,40.97
2018-06-05T21:11:25.072Z,40.43
2018-06-05T21:13:53.539Z,42.10
2018-06-05T21:16:21.884Z,38.23
2018-06-05T21:18:50.298Z,39.70
2018-06-05T21:21:18.646Z,42.87
2018-06-05T21:23:47.010Z,41.17
2018-06-05T21:26:15.364Z,44.83
2018-06-05T21:28:43.695Z,43.77
2018-06-05T21:31:12.091Z,40.73
2018-06-05T21:33:40.447Z,42.47
2018-06-05T21:36:08.829Z,46.13
2018-06-05T21:38:37.887Z,37.50
2018-06-05T21:41:06.247Z,40.80
2018-06-05T21:43:34.620Z,36.80
2018-06-05T21:46:02.925Z,42.17
2018-06-05T21:48:31.374Z,41.33
2018-06-05T21:51:00.635Z,40.97
2018-06-05T21:53:29.002Z,34.97
2018-06-05T21:55:57.468Z,38.87
2018-06-05T21:58:25.966Z,44.23
2018-06-05T22:00:54.388Z,34.93
2018-06-05T22:03:22.790Z,36.00
2018-06-05T22:05:51.235Z,43.70
2018-06-05T22:08:19.828Z,40.53
2018-06-05T22:10:54.262Z,35.03
2018-06-05T22:13:22.904Z,39.17
2018-06-05T22:15:51.327Z,37.13
2018-06-05T22:18:19.715Z,35.90
2018-06-05T22:20:48.092Z,36.50
2018-06-05T22:23:16.469Z,38.67
2018-06-05T22:25:44.851Z,36.67
2018-06-05T22:28:13.183Z,31.90
2018-06-05T22:30:42.121Z,33.23
2018-06-05T22:33:10.580Z,37.73
2018-06-05T22:35:38.902Z,35.20
2018-06-05T22:38:07.251Z,33.57
2018-06-05T22:40:35.607Z,36.63
2018-06-05T22:43:04.004Z,32.93
2018-06-05T22:45:32.412Z,33.23
2018-06-05T22:48:02.063Z,36.17
2018-06-05T22:50:30.497Z,35.20
2018-06-05T22:52:58.834Z,33.83
2018-06-05T22:55:27.211Z,29.20
2018-06-05T22:57:55.613Z,30.23
2018-06-05T23:00:31.553Z,33.20
2018-06-05T23:02:59.932Z,30.77
2018-06-05T23:05:28.376Z,31.63
2018-06-05T23:07:56.752Z,30.83
2018-06-05T23:10:25.189Z,27.30
2018-06-05T23:12:53.552Z,32.33
2018-06-05T23:15:21.892Z,38.23
2018-06-05T23:17:50.897Z,29.87
2018-06-05T23:20:19.202Z,30.80
2018-06-05T23:22:47.582Z,26.70
2018-06-05T23:25:15.916Z,26.77
2018-06-05T23:27:44.274Z,29.03
2018-06-05T23:30:12.666Z,30.80
2018-06-05T23:32:41.002Z,28.90
2018-06-05T23:35:09.376Z,27.80
2018-06-05T23:37:37.704Z,26.57
2018-06-05T23:40:06.078Z,27.90
2018-06-05T23:42:34.429Z,26.60
2018-06-05T23:45:02.780Z,29.07
2018-06-05T23:47:31.137Z,28.93
2018-06-05T23:49:59.467Z,27.23
2018-06-05T23:52:28.389Z,26.00
2018-06-05T23:54:56.756Z,28.90
2018-06-05T23:57:25.117Z,26.03
2018-06-05T23:59:53.516Z,26.80
